KHOU

William P Hobby Airport

Houston, Texas, USA
KHOU 200901Z 2009/2106 34012KT P6SM SKC FM201800 35006KT P6SM FEW250
Issued Valid From Valid To
Jan-20 @ 09:01 UTC
(2 hours ago)
Jan-20 @ 09:00 UTC
(2 hours ago)
Jan-21 @ 06:00 UTC
(in 19 hours)
Jan-20 @ 09:00 to Jan-20 @ 18:00
KHOU 200901Z 2009/2106 34012KT P6SM SKC
Wind Visibility Clouds
340° at 12 knots Greater than 6 miles
  • Clear skies
From Jan-20 @ 18:00 to Jan-21 @ 06:00
FM201800 35006KT P6SM FEW250
Wind Visibility Clouds
350° at 6 knots Greater than 6 miles
  • Few at 25,000' AGL
KHOU 200901Z 2009/2106 34012KT P6SM SKC FM201800 35006KT P6SM FEW250
Issued Jan-20 @ 09:01 UTC
(2 hours ago)
Valid From Jan-20 @ 09:00 UTC
(2 hours ago)
Valid To Jan-21 @ 06:00 UTC
(in 19 hours)
Jan-20 @ 09:00 - Jan-20 @ 18:00
Wind Visibility
340° at 12 knots Greater than 6 miles
Clouds
  • Clear skies
From Jan-20 @ 18:00 - Jan-21 @ 06:00
Wind Visibility
350° at 6 knots Greater than 6 miles
Clouds
  • Few at 25,000' AGL